createdAt,value
2022-08-25T10:24:46.910Z,934.60
2022-08-25T10:25:57.868Z,934.58
2022-08-25T10:26:47.773Z,934.65
2022-08-25T10:27:46.765Z,934.62
2022-08-25T10:28:46.744Z,934.60
2022-08-25T10:29:46.734Z,934.62
2022-08-25T10:30:46.760Z,934.57
2022-08-25T10:31:46.723Z,934.54
2022-08-25T10:32:46.723Z,934.51
2022-08-25T10:33:46.717Z,934.47
2022-08-25T10:34:46.683Z,934.48
2022-08-25T10:35:47.667Z,934.51
2022-08-25T10:36:47.138Z,934.45
2022-08-25T10:37:46.625Z,934.46
2022-08-25T10:38:46.614Z,934.50
2022-08-25T10:39:46.624Z,934.45
2022-08-25T10:40:47.582Z,934.46
2022-08-25T10:41:46.585Z,934.43
2022-08-25T10:42:46.574Z,934.44
2022-08-25T10:43:46.602Z,934.38
2022-08-25T10:44:46.547Z,934.37
2022-08-25T10:45:46.582Z,934.32
2022-08-25T10:46:46.503Z,934.32
2022-08-25T10:47:46.504Z,934.36
2022-08-25T10:48:46.494Z,934.28
2022-08-25T13:49:36.732Z,933.58
2022-08-25T13:50:36.756Z,933.53
2022-08-25T13:51:36.651Z,933.54
2022-08-25T13:52:36.670Z,933.53
2022-08-25T13:53:36.671Z,933.50
2022-08-25T13:54:39.167Z,933.56
2022-08-25T13:55:38.171Z,933.48
2022-08-25T13:56:40.984Z,933.42
2022-08-25T13:57:36.578Z,933.42
2022-08-25T13:58:38.859Z,933.39
2022-08-25T13:59:40.252Z,933.44
2022-08-25T14:00:36.530Z,933.36
2022-08-25T14:01:48.300Z,933.38
2022-08-25T14:02:37.581Z,933.43
2022-08-25T14:03:36.563Z,933.41
2022-08-25T14:04:36.509Z,933.40
2022-08-25T14:05:36.462Z,933.37
2022-08-25T14:06:36.477Z,933.38
2022-08-25T14:07:36.450Z,933.40
2022-08-25T14:08:36.432Z,933.41
2022-08-25T14:09:36.421Z,933.39
2022-08-25T14:10:36.399Z,933.35
2022-08-25T14:11:36.387Z,933.35
2022-08-25T14:12:36.361Z,933.31
2022-08-25T14:13:36.369Z,933.43
2022-08-25T14:14:36.350Z,933.35
2022-08-25T14:15:36.331Z,933.32
2022-08-25T14:16:36.353Z,933.34
2022-08-25T14:17:39.991Z,933.33
2022-08-25T14:18:36.300Z,933.32
2022-08-25T14:19:36.279Z,933.35
2022-08-25T14:20:36.325Z,933.38
2022-08-25T14:21:36.248Z,933.37
2022-08-25T14:22:36.239Z,933.32
2022-08-25T14:23:36.227Z,933.36
2022-08-25T14:24:40.751Z,933.32
2022-08-25T14:25:36.238Z,933.37
2022-08-25T14:26:36.189Z,933.36
2022-08-25T14:27:42.067Z,933.40
2022-08-25T14:28:37.158Z,933.39
2022-08-25T14:29:36.154Z,933.36
2022-08-25T14:30:37.137Z,933.37
2022-08-25T14:31:36.209Z,933.36
2022-08-25T14:32:36.110Z,933.34
2022-08-25T14:33:36.417Z,933.34
2022-08-25T14:34:36.076Z,933.30
2022-08-25T14:35:36.064Z,933.31
2022-08-25T14:36:36.095Z,933.36
2022-08-25T14:37:36.045Z,933.29
2022-08-25T14:38:36.055Z,933.38
2022-08-25T14:39:36.015Z,933.30
2022-08-25T14:40:36.026Z,933.35
2022-08-25T14:41:35.977Z,933.25
2022-08-25T14:42:35.976Z,933.33
2022-08-25T14:43:35.957Z,933.30
2022-08-25T14:44:35.947Z,933.23
2022-08-25T14:45:35.987Z,933.26
2022-08-25T14:46:35.947Z,933.24
2022-08-25T14:47:35.908Z,933.27
2022-08-25T14:48:35.902Z,933.19
2022-08-25T14:49:35.896Z,933.19
2022-08-25T14:50:35.871Z,933.21
2022-08-25T14:51:36.610Z,933.22
2022-08-25T14:52:35.833Z,933.22
2022-08-25T14:53:35.829Z,933.17
2022-08-25T14:54:37.576Z,933.17
2022-08-25T15:30:31.160Z,933.10
2022-08-25T15:31:29.956Z,933.11
2022-08-25T15:32:28.778Z,933.08
2022-08-25T15:33:28.754Z,933.11
2022-08-25T15:34:28.755Z,933.11
2022-08-25T15:35:29.259Z,933.05
2022-08-25T15:36:28.713Z,933.02
2022-08-25T15:37:28.694Z,933.08
2022-08-25T15:38:28.705Z,933.03
2022-08-25T15:39:28.684Z,932.99
2022-08-25T15:40:28.689Z,933.01
2022-08-25T15:41:28.644Z,933.04
2022-08-25T15:42:28.691Z,932.99
2022-08-25T15:43:28.652Z,932.98
2022-08-25T15:44:29.887Z,933.05
2022-08-25T15:45:28.597Z,933.03
2022-08-25T15:46:28.625Z,933.00
2022-08-25T15:47:28.563Z,933.01
2022-08-25T15:48:28.562Z,932.95
2022-08-25T15:49:29.704Z,932.90
2022-08-25T15:50:28.524Z,932.91
2022-08-25T15:51:28.504Z,932.91
2022-08-25T15:52:44.532Z,932.93
2022-08-25T15:53:29.493Z,932.90
2022-08-25T15:54:28.474Z,932.92
2022-08-25T15:55:28.503Z,932.90
2022-08-25T15:56:28.452Z,932.89
2022-08-25T15:57:28.449Z,932.91
2022-08-25T15:58:28.445Z,932.93
2022-08-25T15:59:28.411Z,932.86
2022-08-25T16:00:28.438Z,932.89
2022-08-25T16:01:30.531Z,932.84
2022-08-25T16:02:28.399Z,932.87
2022-08-25T16:03:28.375Z,932.88
2022-08-25T16:04:28.349Z,932.89
2022-08-25T16:05:28.332Z,932.88
2022-08-25T16:06:28.354Z,932.88
2022-08-25T16:07:28.301Z,932.86
2022-08-25T16:08:28.292Z,932.83
2022-08-25T16:09:28.271Z,932.87
2022-08-25T16:10:28.272Z,932.87
2022-08-25T16:11:28.262Z,932.83
2022-08-25T16:12:28.250Z,932.84
2022-08-25T16:13:28.249Z,932.87
2022-08-25T16:14:28.243Z,932.84
2022-08-25T16:15:28.916Z,932.87
2022-08-25T16:16:28.245Z,932.87
2022-08-25T16:17:28.184Z,932.85
2022-08-25T16:18:28.160Z,932.88
2022-08-25T16:19:28.142Z,932.87
2022-08-25T16:20:28.131Z,932.82
2022-08-25T16:21:29.076Z,932.82
2022-08-25T16:22:28.130Z,932.89
2022-08-25T16:23:28.100Z,932.83
2022-08-25T16:24:28.091Z,932.85
2022-08-25T16:25:28.079Z,932.89
2022-08-25T16:26:28.060Z,932.81
2022-08-25T16:27:28.069Z,932.80
2022-08-25T16:28:29.049Z,932.83
2022-08-25T16:29:28.020Z,932.82
2022-08-25T16:30:29.020Z,932.75
2022-08-25T16:31:28.038Z,932.74
2022-08-25T16:32:27.980Z,932.69
2022-08-25T16:33:27.960Z,932.74
2022-08-25T16:34:28.529Z,932.73
2022-08-25T16:35:27.951Z,932.70
2022-08-25T16:36:28.054Z,932.72
2022-08-25T16:37:27.918Z,932.69
2022-08-25T16:38:27.898Z,932.71
2022-08-25T16:39:27.909Z,932.65
2022-08-25T16:40:27.941Z,932.64
2022-08-25T16:41:28.076Z,932.65
2022-08-25T16:42:27.857Z,932.66
2022-08-25T16:43:27.841Z,932.69
2022-08-25T16:44:27.828Z,932.68
2022-08-25T16:45:27.827Z,932.67
2022-08-25T16:46:27.825Z,932.68
2022-08-25T16:47:27.788Z,932.63
2022-08-25T16:48:27.767Z,932.63
2022-08-25T16:49:27.764Z,932.67
2022-08-25T16:50:27.766Z,932.63
2022-08-25T16:51:29.760Z,932.64
2022-08-25T16:52:28.370Z,932.62
2022-08-25T16:53:27.750Z,932.62
2022-08-25T16:54:27.687Z,932.60
2022-08-25T16:55:27.708Z,932.62
2022-08-25T16:56:27.716Z,932.63
2022-08-25T16:57:27.710Z,932.65
2022-08-25T16:58:27.745Z,932.61
2022-08-25T16:59:27.633Z,932.59
2022-08-25T17:00:27.634Z,932.58
2022-08-25T17:01:27.599Z,932.59
2022-08-25T17:02:27.642Z,932.69
2022-08-25T17:03:29.984Z,932.62
2022-08-25T17:04:32.168Z,932.60
2022-08-25T17:05:27.557Z,932.61
2022-08-25T17:06:27.535Z,932.62
2022-08-25T17:07:27.523Z,932.65
2022-08-25T17:08:27.513Z,932.60
2022-08-25T17:09:27.495Z,932.65
2022-08-25T17:10:27.492Z,932.62
2022-08-25T17:11:27.474Z,932.67
2022-08-25T17:12:27.455Z,932.57
2022-08-25T17:13:27.452Z,932.60
2022-08-25T17:14:27.431Z,932.66
2022-08-25T17:15:27.424Z,932.61
2022-08-25T17:16:27.476Z,932.60
2022-08-25T17:17:27.495Z,932.64
2022-08-25T17:18:27.379Z,932.63
2022-08-25T17:19:27.393Z,932.58
2022-08-25T17:20:28.275Z,932.58
2022-08-25T17:21:27.341Z,932.58
2022-08-25T17:22:42.167Z,932.62
2022-08-25T17:23:27.331Z,932.58
2022-08-25T17:24:29.214Z,932.59
2022-08-25T17:25:27.637Z,932.65
2022-08-25T17:26:27.846Z,932.60
2022-08-25T17:27:27.263Z,932.67
2022-08-25T17:28:27.315Z,932.66
2022-08-25T17:29:27.250Z,932.64
2022-08-25T17:30:27.215Z,932.63
2022-08-25T17:31:27.221Z,932.67
2022-08-25T17:32:28.984Z,932.74
2022-08-25T17:33:28.038Z,932.73
2022-08-25T17:34:27.171Z,932.71
2022-08-25T17:35:27.161Z,932.72
2022-08-25T17:36:27.528Z,932.75
2022-08-25T17:37:27.132Z,932.78
